Time;durP1;ratioP1;P1;durP2;ratioP2;P2;SDS_P1;SDS_P2;PMS_P1;PMS_P2;Temp;Humidity;BMP_temperature;BMP_pressure;BME280_temperature;BME280_humidity;BME280_pressure;Samples;Min_cycle;Max_cycle;Signal;HPM_P1;HPM_P2
2022/11/14 00:00:10;;;;;;;28.50;19.23;;;9.00;99.90;;;;;;5010600;28;20809;-44
2022/11/14 00:03:00;;;;;;;28.53;19.47;;;9.00;99.90;;;;;;5010797;28;20285;-46
2022/11/14 00:05:46;;;;;;;27.43;18.67;;;8.90;99.90;;;;;;5014230;28;20245;-45
2022/11/14 00:08:32;;;;;;;26.30;18.07;;;8.90;99.90;;;;;;5014099;28;20330;-45
2022/11/14 00:11:19;;;;;;;28.63;19.93;;;8.80;99.90;;;;;;4997406;28;20218;-49
2022/11/14 00:14:06;;;;;;;25.33;17.77;;;8.90;99.90;;;;;;5008157;28;20701;-50
2022/11/14 00:16:51;;;;;;;27.83;18.97;;;8.80;99.90;;;;;;5017869;28;20220;-44
2022/11/14 00:19:37;;;;;;;28.57;18.83;;;8.80;99.90;;;;;;5010941;28;21168;-43
2022/11/14 00:22:23;;;;;;;28.57;19.40;;;8.80;99.90;;;;;;5015205;28;20251;-48
2022/11/14 00:25:10;;;;;;;26.17;18.73;;;8.70;99.90;;;;;;5017558;28;20329;-43
2022/11/14 00:27:58;;;;;;;27.40;19.20;;;8.70;99.90;;;;;;5005282;28;20226;-45
2022/11/14 00:30:46;;;;;;;27.40;19.10;;;8.70;99.90;;;;;;5017833;28;20330;-49
2022/11/14 00:33:32;;;;;;;26.90;17.10;;;8.70;99.90;;;;;;5022487;28;20227;-44
2022/11/14 00:36:19;;;;;;;26.20;18.20;;;8.70;99.90;;;;;;5002292;28;20261;-45
2022/11/14 00:39:04;;;;;;;25.87;18.30;;;8.70;99.90;;;;;;5025746;28;20218;-47
2022/11/14 00:41:51;;;;;;;27.93;18.73;;;8.70;99.90;;;;;;5010268;28;20222;-44
2022/11/14 00:44:38;;;;;;;28.17;18.10;;;8.60;99.90;;;;;;5015179;28;20231;-45
2022/11/14 00:47:24;;;;;;;27.60;18.83;;;8.60;99.90;;;;;;5021271;28;20211;-44
2022/11/14 00:50:10;;;;;;;30.57;19.43;;;8.60;99.90;;;;;;5024207;28;20262;-46
2022/11/14 00:52:55;;;;;;;26.70;18.80;;;8.50;99.90;;;;;;5008591;28;20592;-44
2022/11/14 00:55:42;;;;;;;30.57;18.10;;;8.50;99.90;;;;;;5024825;28;20211;-44
2022/11/14 00:58:28;;;;;;;27.00;18.33;;;8.50;99.90;;;;;;4998829;28;20224;-46
2022/11/14 01:01:15;;;;;;;29.07;17.93;;;8.40;99.90;;;;;;5008665;28;20885;-45
2022/11/14 01:04:00;;;;;;;25.80;18.07;;;8.40;99.90;;;;;;5024469;28;20242;-44
2022/11/14 01:06:46;;;;;;;27.00;18.00;;;8.30;99.90;;;;;;5010645;28;20282;-45
2022/11/14 01:09:32;;;;;;;30.77;19.60;;;8.30;99.90;;;;;;5008613;28;20358;-44
2022/11/14 01:12:18;;;;;;;30.13;18.70;;;8.20;99.90;;;;;;5009612;28;20203;-46
2022/11/14 01:15:04;;;;;;;31.90;19.43;;;8.20;99.90;;;;;;5015347;28;20239;-46
2022/11/14 01:17:51;;;;;;;29.30;18.10;;;8.20;99.90;;;;;;5023296;28;20210;-44
2022/11/14 01:20:39;;;;;;;30.07;18.53;;;8.20;99.90;;;;;;5016603;28;20474;-44
2022/11/14 01:23:25;;;;;;;31.87;18.60;;;8.20;99.90;;;;;;5006242;28;20938;-48
2022/11/14 01:26:13;;;;;;;30.60;19.57;;;8.10;99.90;;;;;;5023408;28;20281;-49
2022/11/14 01:28:59;;;;;;;30.80;19.13;;;8.10;99.90;;;;;;5001596;28;20247;-45
2022/11/14 01:31:44;;;;;;;32.57;18.70;;;8.20;99.90;;;;;;5010330;28;20219;-48
2022/11/14 01:34:31;;;;;;;30.27;19.60;;;8.10;99.90;;;;;;5020642;28;20308;-44
2022/11/14 01:37:17;;;;;;;29.47;19.33;;;8.10;99.90;;;;;;5017734;28;20211;-47
2022/11/14 01:40:02;;;;;;;32.47;19.10;;;8.10;99.90;;;;;;5016805;28;20261;-46
2022/11/14 01:43:21;;;;;;;30.50;18.37;;;8.10;99.90;;;;;;5019284;28;20227;-45
2022/11/14 01:46:12;;;;;;;30.93;18.90;;;8.10;99.90;;;;;;5006890;28;20218;-43
2022/11/14 01:49:03;;;;;;;31.57;19.10;;;8.10;99.90;;;;;;5018116;28;20219;-45
2022/11/14 01:52:02;;;;;;;29.67;18.63;;;8.10;99.90;;;;;;5024033;28;20323;-46
2022/11/14 01:54:50;;;;;;;33.67;19.20;;;8.10;99.90;;;;;;5023337;28;20286;-44
2022/11/14 01:57:40;;;;;;;32.53;20.13;;;8.00;99.90;;;;;;5015362;28;21053;-44
2022/11/14 02:00:25;;;;;;;29.90;18.40;;;8.10;99.90;;;;;;4993181;28;20324;-44
2022/11/14 02:03:13;;;;;;;33.50;20.23;;;8.10;99.90;;;;;;5011751;28;20227;-49
2022/11/14 02:06:00;;;;;;;30.73;19.00;;;8.00;99.90;;;;;;5021245;28;20331;-44
2022/11/14 02:08:49;;;;;;;31.20;19.50;;;8.00;99.90;;;;;;5011096;28;20721;-45
2022/11/14 02:11:38;;;;;;;31.27;19.80;;;8.00;99.90;;;;;;5021465;28;20911;-45
2022/11/14 02:14:24;;;;;;;30.73;19.83;;;8.00;99.90;;;;;;5019971;28;20272;-45
2022/11/14 02:17:09;;;;;;;31.67;20.00;;;8.00;99.90;;;;;;5004810;28;20215;-46
2022/11/14 02:20:03;;;;;;;35.17;20.07;;;8.00;99.90;;;;;;5017073;28;20625;-46
2022/11/14 02:22:49;;;;;;;33.20;19.43;;;8.00;99.90;;;;;;5018605;28;20727;-44
2022/11/14 02:25:35;;;;;;;30.10;18.50;;;8.00;99.90;;;;;;5005247;28;20242;-48
2022/11/14 02:28:21;;;;;;;36.40;20.57;;;8.00;99.90;;;;;;5007358;28;20235;-52
2022/11/14 02:31:06;;;;;;;32.10;19.60;;;8.00;99.90;;;;;;5004845;28;20267;-44
2022/11/14 02:33:52;;;;;;;29.70;18.70;;;7.90;99.90;;;;;;5012930;28;20235;-48
2022/11/14 02:36:39;;;;;;;30.90;19.40;;;8.00;99.90;;;;;;5020992;28;20224;-47
2022/11/14 02:39:26;;;;;;;34.87;20.07;;;8.00;99.90;;;;;;5019815;28;20202;-44
2022/11/14 02:42:11;;;;;;;32.97;20.87;;;8.00;99.90;;;;;;5007407;28;20253;-46
2022/11/14 02:44:57;;;;;;;33.50;19.90;;;7.90;99.90;;;;;;5023563;28;20702;-47
2022/11/14 02:47:42;;;;;;;31.20;20.40;;;7.90;99.90;;;;;;5012150;28;20215;-48
2022/11/14 02:50:28;;;;;;;33.50;20.30;;;7.90;99.90;;;;;;5010863;28;20255;-45
2022/11/14 02:53:15;;;;;;;34.53;19.03;;;7.90;99.90;;;;;;5020552;28;20338;-45
2022/11/14 02:56:01;;;;;;;32.13;19.10;;;7.90;99.90;;;;;;5011893;28;20215;-43
2022/11/14 02:58:47;;;;;;;30.93;18.40;;;7.90;99.90;;;;;;5009618;28;20293;-47
2022/11/14 03:01:32;;;;;;;36.57;20.27;;;7.90;99.90;;;;;;5004246;28;20222;-45
2022/11/14 03:04:18;;;;;;;30.27;20.50;;;7.90;99.90;;;;;;5009231;28;20274;-47
2022/11/14 03:07:04;;;;;;;30.37;19.43;;;7.90;99.90;;;;;;5017782;28;20198;-47
2022/11/14 03:09:51;;;;;;;33.90;20.80;;;7.90;99.90;;;;;;5014329;28;20214;-46
2022/11/14 03:12:37;;;;;;;31.93;19.83;;;7.90;99.90;;;;;;5005224;28;20239;-44
2022/11/14 03:15:23;;;;;;;33.53;19.33;;;7.90;99.90;;;;;;5016607;28;20262;-45
2022/11/14 03:18:09;;;;;;;35.33;20.10;;;7.90;99.90;;;;;;5007207;28;20350;-46
2022/11/14 03:20:55;;;;;;;35.33;21.27;;;7.90;99.90;;;;;;5014961;28;20215;-43
2022/11/14 03:23:40;;;;;;;32.90;19.67;;;7.90;99.90;;;;;;5020758;28;20234;-44
2022/11/14 03:26:27;;;;;;;36.53;20.13;;;7.90;99.90;;;;;;5019194;28;20326;-45
2022/11/14 03:29:12;;;;;;;37.00;21.00;;;7.90;99.90;;;;;;5001651;28;20332;-45
2022/11/14 03:31:58;;;;;;;35.60;21.30;;;7.90;99.90;;;;;;5007766;28;20711;-44
2022/11/14 03:34:44;;;;;;;33.80;20.53;;;7.80;99.90;;;;;;5014075;28;20223;-47
2022/11/14 03:37:30;;;;;;;32.23;19.67;;;7.80;99.90;;;;;;5010863;28;20219;-46
2022/11/14 03:40:16;;;;;;;34.67;21.37;;;7.80;99.90;;;;;;5005177;28;20249;-49
2022/11/14 03:43:03;;;;;;;30.90;19.47;;;7.80;99.90;;;;;;5017299;28;20694;-47
2022/11/14 03:45:49;;;;;;;35.27;20.50;;;7.80;99.90;;;;;;5020225;28;20683;-44
2022/11/14 03:48:34;;;;;;;31.73;19.83;;;7.80;99.90;;;;;;5011491;28;20206;-47
2022/11/14 03:51:20;;;;;;;34.77;20.47;;;7.80;99.90;;;;;;5015953;28;20261;-48
2022/11/14 03:54:07;;;;;;;33.97;21.10;;;7.80;99.90;;;;;;5004518;28;20227;-47
2022/11/14 03:56:53;;;;;;;36.60;22.00;;;7.80;99.90;;;;;;5013790;28;20686;-45
2022/11/14 03:59:39;;;;;;;34.57;21.37;;;7.90;99.90;;;;;;5010780;28;20308;-45
2022/11/14 04:02:25;;;;;;;34.13;21.53;;;7.90;99.90;;;;;;5004574;28;24039;-45
2022/11/14 04:05:11;;;;;;;34.70;20.63;;;7.90;99.90;;;;;;5017401;28;20227;-49
2022/11/14 04:07:56;;;;;;;35.20;20.97;;;7.90;99.90;;;;;;5007556;28;20290;-47
2022/11/14 04:10:42;;;;;;;34.97;21.77;;;7.90;99.90;;;;;;5025258;28;20702;-44
2022/11/14 04:13:28;;;;;;;33.73;20.47;;;7.90;99.90;;;;;;5020988;28;20414;-45
2022/11/14 04:16:16;;;;;;;37.13;20.97;;;7.90;99.90;;;;;;5015135;28;20815;-43
2022/11/14 04:19:01;;;;;;;36.83;21.40;;;7.90;99.90;;;;;;5008324;28;20219;-47
2022/11/14 04:21:47;;;;;;;34.47;20.53;;;7.80;99.90;;;;;;5025511;28;20219;-46
2022/11/14 04:24:33;;;;;;;32.27;21.37;;;7.80;99.90;;;;;;5017685;28;20314;-46
2022/11/14 04:27:19;;;;;;;37.73;22.33;;;7.80;99.90;;;;;;5023267;28;20203;-46
2022/11/14 04:30:07;;;;;;;29.50;19.90;;;7.80;99.90;;;;;;5022116;28;20291;-46
2022/11/14 04:32:54;;;;;;;34.37;21.17;;;7.80;99.90;;;;;;5018557;28;20570;-47
2022/11/14 04:35:40;;;;;;;30.33;19.63;;;7.80;99.90;;;;;;5011618;28;20258;-49
2022/11/14 04:38:25;;;;;;;34.17;21.53;;;7.80;99.90;;;;;;5024292;28;20199;-47
2022/11/14 04:41:11;;;;;;;34.33;21.63;;;7.80;99.90;;;;;;5013136;28;20319;-46
2022/11/14 04:43:57;;;;;;;33.47;20.60;;;7.80;99.90;;;;;;5022998;28;20258;-47
2022/11/14 04:46:42;;;;;;;31.27;20.70;;;7.80;99.90;;;;;;5025863;28;20214;-47
2022/11/14 04:49:30;;;;;;;34.97;21.23;;;7.80;99.90;;;;;;5013648;28;20590;-45
2022/11/14 04:52:15;;;;;;;38.33;20.67;;;7.80;99.90;;;;;;5010746;28;20834;-45
2022/11/14 04:55:01;;;;;;;36.67;21.57;;;7.80;99.90;;;;;;5017462;28;20252;-46
2022/11/14 04:57:47;;;;;;;34.13;21.37;;;7.80;99.90;;;;;;5017007;28;20334;-46
2022/11/14 05:00:32;;;;;;;33.70;20.50;;;7.80;99.90;;;;;;5025186;28;20254;-43
2022/11/14 05:03:18;;;;;;;34.87;20.80;;;7.80;99.90;;;;;;5008515;28;20453;-47
2022/11/14 05:06:05;;;;;;;33.90;21.53;;;7.80;99.90;;;;;;4999140;28;20216;-45
2022/11/14 05:08:51;;;;;;;34.53;21.10;;;7.80;99.90;;;;;;5017099;28;20330;-50
2022/11/14 05:11:37;;;;;;;33.20;20.67;;;7.80;99.90;;;;;;5016247;28;20300;-46
2022/11/14 05:14:22;;;;;;;34.33;21.37;;;7.80;99.90;;;;;;5022202;28;20250;-47
2022/11/14 05:17:08;;;;;;;34.50;20.20;;;7.80;99.90;;;;;;5021213;28;20305;-44
2022/11/14 05:19:54;;;;;;;32.30;20.23;;;7.80;99.90;;;;;;5000149;28;20368;-46
2022/11/14 05:22:41;;;;;;;36.20;20.33;;;7.80;99.90;;;;;;5022279;28;20338;-48
2022/11/14 05:25:26;;;;;;;31.17;19.83;;;7.80;99.90;;;;;;5014970;28;20230;-44
2022/11/14 05:28:12;;;;;;;31.30;20.20;;;7.80;99.90;;;;;;5017503;28;20270;-45
2022/11/14 05:31:03;;;;;;;31.00;20.30;;;7.70;99.90;;;;;;5011661;28;20305;-43
2022/11/14 05:33:49;;;;;;;30.13;20.10;;;7.70;99.90;;;;;;5010237;28;20992;-45
2022/11/14 05:36:35;;;;;;;36.77;20.70;;;7.70;99.90;;;;;;5003186;28;20717;-44
2022/11/14 05:39:22;;;;;;;34.73;20.03;;;7.70;99.90;;;;;;5018449;28;20331;-46
2022/11/14 05:42:07;;;;;;;32.70;20.33;;;7.70;99.90;;;;;;5009200;28;20310;-43
2022/11/14 05:44:53;;;;;;;35.27;21.67;;;7.70;99.90;;;;;;5007621;28;20649;-45
2022/11/14 05:47:39;;;;;;;32.37;20.03;;;7.70;99.90;;;;;;5010720;28;20242;-44
2022/11/14 05:50:25;;;;;;;37.77;21.93;;;7.70;99.90;;;;;;5001876;28;20220;-44
2022/11/14 05:53:11;;;;;;;34.10;20.50;;;7.70;99.90;;;;;;4998582;28;20227;-47
2022/11/14 05:56:03;;;;;;;31.73;19.97;;;7.70;99.90;;;;;;5000927;28;20401;-44
2022/11/14 05:58:48;;;;;;;35.70;20.97;;;7.70;99.90;;;;;;5012141;28;20218;-46
2022/11/14 06:01:34;;;;;;;35.13;20.00;;;7.70;99.90;;;;;;5012903;28;20250;-48
2022/11/14 06:04:20;;;;;;;34.73;21.00;;;7.70;99.90;;;;;;5018011;28;20223;-48
2022/11/14 06:07:05;;;;;;;35.30;21.80;;;7.70;99.90;;;;;;5002981;28;20414;-49
2022/11/14 06:09:50;;;;;;;33.93;21.70;;;7.60;99.90;;;;;;5013056;28;20257;-46
2022/11/14 06:12:38;;;;;;;31.90;19.80;;;7.60;99.90;;;;;;5009683;28;20699;-44
2022/11/14 06:15:24;;;;;;;36.23;21.13;;;7.60;99.90;;;;;;5010643;28;20289;-46
2022/11/14 06:18:10;;;;;;;31.23;21.20;;;7.60;99.90;;;;;;5015106;28;20207;-48
2022/11/14 06:20:59;;;;;;;35.63;21.47;;;7.60;99.90;;;;;;5003569;28;20981;-44
2022/11/14 06:23:44;;;;;;;35.10;20.13;;;7.60;99.90;;;;;;5005331;28;20236;-44
2022/11/14 06:26:31;;;;;;;35.13;22.23;;;7.50;99.90;;;;;;5022292;28;20691;-48
2022/11/14 06:29:18;;;;;;;36.90;21.20;;;7.50;99.90;;;;;;5004854;28;20215;-45
2022/11/14 06:32:05;;;;;;;36.60;22.07;;;7.50;99.90;;;;;;5013118;28;20324;-46
2022/11/14 06:34:50;;;;;;;34.63;22.13;;;7.50;99.90;;;;;;5008739;28;20219;-44
2022/11/14 06:37:36;;;;;;;39.90;22.27;;;7.50;99.90;;;;;;5011366;28;20355;-47
2022/11/14 06:40:22;;;;;;;38.00;21.73;;;7.50;99.90;;;;;;5009344;28;20353;-45
2022/11/14 06:43:07;;;;;;;37.23;22.20;;;7.50;99.90;;;;;;5005565;28;20298;-44
2022/11/14 06:45:55;;;;;;;37.60;22.70;;;7.50;99.90;;;;;;5003237;28;20350;-51
2022/11/14 06:48:41;;;;;;;32.63;21.13;;;7.60;99.90;;;;;;5011454;28;20209;-46
2022/11/14 06:51:27;;;;;;;39.00;22.33;;;7.60;99.90;;;;;;5009197;28;20757;-49
2022/11/14 06:54:13;;;;;;;37.70;22.80;;;7.60;99.90;;;;;;5006747;28;20257;-44
2022/11/14 06:56:58;;;;;;;36.33;21.30;;;7.50;99.90;;;;;;5015150;28;20212;-44
2022/11/14 06:59:44;;;;;;;35.50;21.67;;;7.50;99.90;;;;;;4998935;28;20378;-46
2022/11/14 07:02:31;;;;;;;34.60;20.73;;;7.50;99.90;;;;;;5010608;28;20770;-46
2022/11/14 07:05:16;;;;;;;37.10;21.23;;;7.40;99.90;;;;;;5014719;28;20370;-47
2022/11/14 07:08:02;;;;;;;35.73;20.00;;;7.40;99.90;;;;;;5013881;28;20571;-45
2022/11/14 07:10:48;;;;;;;39.13;22.60;;;7.40;99.90;;;;;;4987481;28;20215;-45
2022/11/14 07:13:34;;;;;;;37.13;21.13;;;7.40;99.90;;;;;;5013931;28;20234;-48
2022/11/14 07:16:21;;;;;;;39.63;21.70;;;7.30;99.90;;;;;;5015275;28;20370;-44
2022/11/14 07:19:09;;;;;;;40.23;21.20;;;7.30;99.90;;;;;;5010084;28;20257;-47
2022/11/14 07:21:55;;;;;;;37.97;21.77;;;7.30;99.90;;;;;;4999445;28;20235;-46
2022/11/14 07:24:41;;;;;;;42.83;23.63;;;7.30;99.90;;;;;;4998005;28;20312;-47
2022/11/14 07:27:26;;;;;;;39.17;21.97;;;7.30;99.90;;;;;;4999154;28;20722;-45
2022/11/14 07:30:13;;;;;;;41.27;22.43;;;7.30;99.90;;;;;;5003300;28;20262;-48
2022/11/14 07:33:00;;;;;;;45.47;23.10;;;7.30;99.90;;;;;;5002919;28;20350;-47
2022/11/14 07:35:48;;;;;;;39.60;22.67;;;7.30;99.90;;;;;;5008758;28;20830;-46
2022/11/14 07:38:34;;;;;;;42.13;23.60;;;7.30;99.90;;;;;;5006358;28;20576;-46
2022/11/14 07:41:20;;;;;;;39.77;22.60;;;7.30;99.90;;;;;;5012885;28;20263;-44
2022/11/14 07:44:05;;;;;;;44.93;23.87;;;7.30;99.90;;;;;;5020612;28;20238;-44
2022/11/14 07:46:51;;;;;;;43.07;24.03;;;7.20;99.90;;;;;;4995644;28;20764;-47
2022/11/14 07:49:38;;;;;;;44.03;23.70;;;7.20;99.90;;;;;;5016078;28;20246;-47
2022/11/14 07:52:25;;;;;;;38.77;22.57;;;7.20;99.90;;;;;;5012316;28;21189;-43
2022/11/14 07:55:10;;;;;;;40.40;22.97;;;7.20;99.90;;;;;;4999932;28;20258;-46
2022/11/14 07:57:59;;;;;;;36.23;20.90;;;7.20;99.90;;;;;;4998054;28;20334;-47
2022/11/14 08:00:45;;;;;;;38.93;22.67;;;7.20;99.90;;;;;;5018858;28;20211;-44
2022/11/14 08:03:31;;;;;;;41.50;23.33;;;7.20;99.90;;;;;;5007810;28;20253;-44
2022/11/14 08:06:16;;;;;;;45.40;23.47;;;7.20;99.90;;;;;;5015287;28;20435;-49
2022/11/14 08:09:03;;;;;;;42.27;22.03;;;7.20;99.90;;;;;;5007100;28;20214;-45
2022/11/14 08:11:49;;;;;;;45.27;24.63;;;7.20;99.90;;;;;;5013172;28;20571;-45
2022/11/14 08:14:35;;;;;;;41.23;23.90;;;7.20;99.90;;;;;;5008126;28;20288;-46
2022/11/14 08:17:20;;;;;;;38.03;22.57;;;7.20;99.90;;;;;;5006701;28;20223;-44
2022/11/14 08:20:08;;;;;;;42.37;23.53;;;7.30;99.90;;;;;;5012400;28;20335;-47
2022/11/14 08:22:53;;;;;;;37.93;21.73;;;7.30;99.90;;;;;;5006330;28;20214;-46
2022/11/14 08:25:41;;;;;;;41.10;24.10;;;7.20;99.90;;;;;;5022482;28;20222;-44
2022/11/14 08:28:26;;;;;;;40.20;22.87;;;7.30;99.90;;;;;;4999060;28;20223;-45
2022/11/14 08:31:13;;;;;;;41.73;23.07;;;7.30;99.90;;;;;;5008239;28;20215;-45
2022/11/14 08:33:58;;;;;;;44.77;23.70;;;7.30;99.90;;;;;;5010229;28;20249;-46
2022/11/14 08:36:45;;;;;;;43.73;24.43;;;7.30;99.90;;;;;;5022335;28;20214;-45
2022/11/14 08:39:31;;;;;;;44.33;24.23;;;7.30;99.90;;;;;;5008082;28;20780;-45
2022/11/14 08:42:18;;;;;;;42.77;23.40;;;7.30;99.90;;;;;;5009403;28;20203;-45
2022/11/14 08:45:04;;;;;;;46.07;24.57;;;7.30;99.90;;;;;;4994553;28;20231;-45
2022/11/14 08:47:52;;;;;;;39.67;22.30;;;7.30;99.90;;;;;;5012727;28;20733;-49
2022/11/14 08:50:38;;;;;;;44.63;24.90;;;7.30;99.90;;;;;;5014067;28;20294;-44
2022/11/14 08:53:24;;;;;;;43.83;22.40;;;7.30;99.90;;;;;;5012310;28;20523;-44
2022/11/14 08:56:10;;;;;;;42.63;24.00;;;7.30;99.90;;;;;;5004651;28;20265;-44
2022/11/14 08:58:57;;;;;;;46.37;24.67;;;7.20;99.90;;;;;;5005366;28;20270;-48
2022/11/14 09:01:43;;;;;;;48.00;26.33;;;7.30;99.90;;;;;;5018503;28;20254;-46
2022/11/14 09:04:29;;;;;;;44.27;23.53;;;7.30;99.90;;;;;;5020705;28;20246;-48
2022/11/14 09:07:15;;;;;;;43.73;24.73;;;7.30;99.90;;;;;;5015374;28;20199;-43
2022/11/14 09:10:00;;;;;;;44.57;23.73;;;7.30;99.90;;;;;;5012583;28;20705;-45
2022/11/14 09:12:45;;;;;;;45.80;23.73;;;7.30;99.90;;;;;;5016443;28;20284;-46
2022/11/14 09:15:33;;;;;;;45.73;24.17;;;7.30;99.90;;;;;;4991392;28;20239;-49
2022/11/14 09:18:19;;;;;;;47.43;24.17;;;7.30;99.90;;;;;;5018181;28;20790;-52
2022/11/14 09:21:06;;;;;;;42.30;23.33;;;7.30;99.90;;;;;;5007444;28;20681;-47
2022/11/14 09:23:51;;;;;;;49.93;23.00;;;7.30;99.90;;;;;;5015877;28;20226;-47
2022/11/14 09:26:37;;;;;;;42.87;23.90;;;7.30;99.90;;;;;;5011850;28;20242;-43
2022/11/14 09:29:23;;;;;;;41.77;22.43;;;7.30;99.90;;;;;;5012369;28;20238;-47
2022/11/14 09:32:10;;;;;;;41.40;23.33;;;7.30;99.90;;;;;;4991225;28;20231;-44
2022/11/14 09:34:56;;;;;;;45.73;22.47;;;7.30;99.90;;;;;;5007293;28;20227;-48
2022/11/14 09:37:42;;;;;;;43.37;24.23;;;7.30;99.90;;;;;;5005114;28;20212;-45
2022/11/14 09:40:28;;;;;;;46.87;24.43;;;7.30;99.90;;;;;;5013155;28;20215;-47
2022/11/14 09:43:34;;;;;;;40.87;22.23;;;7.40;99.90;;;;;;5008563;28;20206;-45
2022/11/14 09:46:23;;;;;;;42.33;22.70;;;7.40;99.90;;;;;;4999444;28;20247;-45
2022/11/14 09:49:20;;;;;;;41.10;23.40;;;7.40;99.90;;;;;;5014037;28;20211;-45
2022/11/14 09:52:18;;;;;;;47.63;22.77;;;7.40;99.90;;;;;;4997052;28;20222;-44
2022/11/14 09:55:12;;;;;;;38.90;22.67;;;7.40;99.90;;;;;;5012985;28;20232;-44
2022/11/14 09:57:58;;;;;;;41.27;21.83;;;7.50;99.90;;;;;;4998968;28;20235;-44
2022/11/14 10:00:50;;;;;;;40.73;22.80;;;7.50;99.90;;;;;;5012561;28;20289;-45
2022/11/14 10:03:47;;;;;;;41.27;22.07;;;7.50;99.90;;;;;;4998352;28;20277;-48
2022/11/14 10:06:37;;;;;;;43.70;21.80;;;7.50;99.90;;;;;;5017173;28;20219;-44
2022/11/14 10:09:43;;;;;;;39.80;22.03;;;7.60;99.90;;;;;;5010633;28;20211;-50
2022/11/14 10:12:40;;;;;;;48.13;23.53;;;7.60;99.90;;;;;;5009496;28;20293;-53
2022/11/14 10:15:31;;;;;;;43.90;23.27;;;7.60;99.90;;;;;;5012491;28;20604;-51
2022/11/14 10:18:28;;;;;;;46.17;23.37;;;7.70;99.90;;;;;;4995357;28;20222;-50
2022/11/14 10:21:30;;;;;;;45.47;22.97;;;7.60;99.90;;;;;;5011991;28;20537;-49
2022/11/14 10:24:38;;;;;;;38.50;22.00;;;7.70;99.90;;;;;;5006901;28;20481;-47
2022/11/14 10:27:27;;;;;;;38.47;22.30;;;7.70;99.90;;;;;;5013284;28;20293;-49
2022/11/14 10:30:17;;;;;;;39.77;22.17;;;7.70;99.90;;;;;;5011235;28;20358;-50
2022/11/14 10:33:17;;;;;;;38.37;21.40;;;7.70;99.90;;;;;;4998693;28;20896;-49
2022/11/14 10:36:10;;;;;;;41.53;23.03;;;7.80;99.90;;;;;;5010261;28;20884;-48
2022/11/14 10:39:05;;;;;;;42.03;22.13;;;7.80;99.90;;;;;;5003214;28;20207;-50
2022/11/14 10:41:56;;;;;;;43.83;22.53;;;7.80;99.90;;;;;;5006897;28;20223;-49
2022/11/14 10:44:49;;;;;;;39.60;21.90;;;7.80;99.90;;;;;;5002669;28;21081;-49
2022/11/14 10:47:39;;;;;;;36.03;21.53;;;7.90;99.90;;;;;;5003177;28;20204;-46
2022/11/14 10:50:28;;;;;;;41.60;22.93;;;7.90;99.90;;;;;;4995299;28;20223;-49
2022/11/14 10:53:19;;;;;;;38.47;21.90;;;8.00;99.90;;;;;;5008346;28;20762;-44
2022/11/14 10:56:05;;;;;;;41.17;21.63;;;8.00;99.90;;;;;;5002860;28;20350;-53
2022/11/14 10:58:53;;;;;;;36.77;21.90;;;8.10;99.90;;;;;;5006586;28;20212;-49
2022/11/14 11:01:40;;;;;;;39.50;22.10;;;8.10;99.90;;;;;;5009272;28;20984;-51
2022/11/14 11:04:27;;;;;;;31.10;20.90;;;8.20;99.90;;;;;;5001721;28;20338;-53
2022/11/14 11:13:35;;;;;;;33.43;20.23;;;8.30;99.90;;;;;;4993940;28;20262;-53
2022/11/14 11:16:24;;;;;;;32.07;20.77;;;8.30;99.90;;;;;;5016122;28;20239;-55
2022/11/14 11:19:21;;;;;;;38.67;22.07;;;8.40;99.90;;;;;;5003564;28;20219;-56
2022/11/14 11:22:25;;;;;;;37.70;21.03;;;8.40;99.90;;;;;;4998839;28;20403;-55
2022/11/14 11:25:25;;;;;;;32.33;18.90;;;8.50;99.90;;;;;;5007072;28;20876;-56
2022/11/14 11:28:13;;;;;;;32.97;19.73;;;8.60;99.90;;;;;;5002356;28;20230;-54
2022/11/14 11:31:01;;;;;;;35.77;20.50;;;8.60;99.90;;;;;;5006652;28;20235;-57
2022/11/14 11:33:47;;;;;;;30.67;19.33;;;8.70;99.90;;;;;;5003675;28;20270;-55
2022/11/14 11:36:38;;;;;;;35.70;19.90;;;8.70;99.90;;;;;;4992232;28;20258;-55
2022/11/14 11:39:29;;;;;;;33.93;20.37;;;8.80;99.90;;;;;;5006999;28;20203;-56
2022/11/14 11:42:18;;;;;;;34.80;19.77;;;8.80;99.90;;;;;;5003958;28;21038;-57
2022/11/14 11:45:12;;;;;;;30.87;20.10;;;8.90;99.90;;;;;;5004940;28;20230;-57
2022/11/14 11:48:01;;;;;;;32.23;20.17;;;9.00;99.90;;;;;;5007535;28;20429;-53
2022/11/14 11:50:48;;;;;;;33.57;20.20;;;9.10;99.90;;;;;;5010850;28;20207;-57
2022/11/14 11:53:38;;;;;;;34.83;20.37;;;9.10;99.90;;;;;;4994273;28;20266;-56
2022/11/14 11:56:27;;;;;;;32.67;19.23;;;9.20;99.90;;;;;;5010767;28;20207;-57
2022/11/14 11:59:25;;;;;;;31.63;19.20;;;9.30;99.90;;;;;;5010189;28;20722;-56
2022/11/14 12:02:22;;;;;;;37.03;19.90;;;9.30;99.90;;;;;;5002657;28;20215;-56
2022/11/14 12:05:15;;;;;;;31.57;19.57;;;9.40;99.90;;;;;;5011999;28;20982;-56
2022/11/14 12:08:06;;;;;;;30.70;18.20;;;9.40;99.90;;;;;;4995813;28;20930;-58
2022/11/14 12:10:53;;;;;;;27.97;18.97;;;9.40;99.90;;;;;;5007884;28;20773;-58
2022/11/14 12:14:00;;;;;;;29.87;20.10;;;9.50;99.90;;;;;;4999995;28;20781;-57
2022/11/14 12:17:48;;;;;;;27.53;17.83;;;9.60;99.90;;;;;;4999776;28;20838;-55
2022/11/14 12:20:56;;;;;;;34.00;18.97;;;9.60;99.90;;;;;;4950892;28;20393;-54
2022/11/14 12:24:06;;;;;;;29.43;17.97;;;9.60;99.90;;;;;;4997219;28;20700;-55
2022/11/14 12:27:05;;;;;;;28.67;17.53;;;9.60;99.90;;;;;;5010892;28;20231;-54
2022/11/14 12:30:08;;;;;;;30.47;19.03;;;9.60;99.90;;;;;;5017502;28;20875;-54
2022/11/14 12:32:58;;;;;;;30.53;19.53;;;9.70;99.90;;;;;;5003284;28;20492;-56
2022/11/14 12:35:51;;;;;;;32.80;19.23;;;9.70;99.90;;;;;;5015678;28;20219;-54
2022/11/14 12:38:43;;;;;;;31.57;18.93;;;9.70;99.90;;;;;;5016214;28;20204;-57
2022/11/14 12:41:32;;;;;;;33.73;18.83;;;9.80;99.90;;;;;;5001388;28;20321;-57
2022/11/14 12:44:31;;;;;;;29.67;19.07;;;9.80;99.90;;;;;;5004594;28;20810;-57
2022/11/14 12:47:21;;;;;;;28.43;18.77;;;9.90;99.90;;;;;;4999148;28;20235;-55
2022/11/14 12:50:39;;;;;;;34.10;19.60;;;9.90;99.90;;;;;;5015867;28;20215;-54
2022/11/14 12:53:41;;;;;;;32.13;17.93;;;9.90;99.90;;;;;;5014869;28;20222;-57
2022/11/14 12:56:54;;;;;;;29.80;19.13;;;9.90;99.90;;;;;;4998741;28;20215;-57
2022/11/14 12:59:51;;;;;;;30.20;18.93;;;10.00;99.90;;;;;;5006177;28;20242;-57
2022/11/14 13:03:17;;;;;;;28.13;18.73;;;10.00;99.90;;;;;;5005760;28;21326;-54
2022/11/14 13:06:07;;;;;;;33.87;20.53;;;10.00;99.90;;;;;;5012261;28;20423;-57
2022/11/14 13:09:32;;;;;;;30.30;19.27;;;10.00;99.90;;;;;;5014952;28;20224;-57
2022/11/14 13:22:19;;;;;;;30.70;18.50;;;10.00;99.90;;;;;;4994179;28;20266;-56
2022/11/14 13:25:17;;;;;;;29.30;18.37;;;10.00;99.90;;;;;;5008622;28;20231;-58
2022/11/14 13:28:36;;;;;;;28.10;18.90;;;10.10;99.90;;;;;;4998013;28;20597;-57
2022/11/14 13:31:25;;;;;;;32.33;19.47;;;10.10;99.90;;;;;;5007971;28;24369;-58
2022/11/14 13:34:38;;;;;;;28.37;18.47;;;10.20;99.90;;;;;;5011889;28;20294;-56
2022/11/14 13:37:48;;;;;;;29.93;18.60;;;10.30;99.90;;;;;;5010818;28;20254;-56
2022/11/14 13:40:41;;;;;;;30.07;18.37;;;10.40;99.90;;;;;;5012418;28;20405;-54
2022/11/14 13:43:43;;;;;;;29.10;19.27;;;11.30;99.90;;;;;;5000928;28;20238;-57
2022/11/14 13:46:44;;;;;;;30.60;18.60;;;11.50;99.90;;;;;;5013001;28;20227;-56
2022/11/14 13:49:52;;;;;;;30.80;17.73;;;11.30;99.90;;;;;;5009655;28;20722;-54
2022/11/14 13:52:42;;;;;;;23.47;17.20;;;11.20;99.90;;;;;;5018550;28;20215;-55
2022/11/14 13:55:39;;;;;;;29.50;17.77;;;11.40;99.90;;;;;;5011353;28;20215;-52
2022/11/14 13:58:56;;;;;;;27.40;17.33;;;11.50;99.90;;;;;;4996556;28;20215;-55
2022/11/14 14:02:01;;;;;;;28.80;17.80;;;11.40;99.90;;;;;;5014820;28;20231;-57
2022/11/14 14:04:54;;;;;;;25.83;17.47;;;11.20;99.90;;;;;;4995699;28;20239;-58
2022/11/14 14:07:56;;;;;;;30.37;18.30;;;11.10;99.90;;;;;;5003891;28;20227;-53
2022/11/14 14:10:50;;;;;;;30.07;19.03;;;11.00;99.90;;;;;;5008624;28;20218;-57
2022/11/14 14:13:45;;;;;;;31.70;19.20;;;10.80;99.90;;;;;;4996579;28;20364;-57
2022/11/14 14:16:36;;;;;;;30.73;19.40;;;10.80;99.90;;;;;;5011328;28;20250;-56
2022/11/14 14:19:35;;;;;;;26.57;17.43;;;10.80;99.90;;;;;;4998909;28;20943;-56
2022/11/14 14:22:32;;;;;;;27.13;18.00;;;10.80;99.90;;;;;;5002231;28;22334;-56
2022/11/14 14:25:27;;;;;;;29.40;17.93;;;10.60;99.90;;;;;;5001277;28;20228;-54
2022/11/14 14:28:22;;;;;;;31.80;19.33;;;10.50;99.90;;;;;;4999156;28;20227;-57
2022/11/14 14:31:14;;;;;;;28.47;17.90;;;10.40;99.90;;;;;;5002596;28;20235;-55
2022/11/14 14:34:00;;;;;;;30.47;19.07;;;10.30;99.90;;;;;;5001325;28;21487;-56
2022/11/14 14:36:51;;;;;;;29.97;18.43;;;10.20;99.90;;;;;;5014549;28;20908;-56
2022/11/14 14:39:37;;;;;;;28.57;18.97;;;10.10;99.90;;;;;;5017866;28;20687;-58
2022/11/14 14:42:23;;;;;;;30.70;18.43;;;10.00;99.90;;;;;;5017288;28;20346;-57
2022/11/14 14:45:16;;;;;;;28.80;18.53;;;9.90;99.90;;;;;;5000824;28;20247;-56